createdAt,value
2016-07-22T00:00:22.282Z,0
2016-07-22T00:01:23.022Z,0
2016-07-22T00:02:22.343Z,0
2016-07-22T00:03:22.437Z,0
2016-07-22T00:04:22.442Z,0
2016-07-22T00:05:22.428Z,0
2016-07-22T00:06:23.186Z,0
2016-07-22T00:07:23.203Z,0
2016-07-22T00:08:22.739Z,0
2016-07-22T00:09:22.776Z,0
2016-07-22T00:10:23.291Z,0
2016-07-22T00:11:23.328Z,0
2016-07-22T00:12:22.645Z,0
2016-07-22T00:13:22.691Z,0
2016-07-22T00:14:22.708Z,0
2016-07-22T00:15:22.739Z,0
2016-07-22T00:16:22.773Z,0
2016-07-22T00:17:23.505Z,0
2016-07-22T00:18:22.837Z,0
2016-07-22T00:19:22.859Z,0
2016-07-22T00:20:22.891Z,0
2016-07-22T00:21:22.917Z,0
2016-07-22T00:22:23.653Z,0
2016-07-22T00:23:23.822Z,0
2016-07-22T00:24:23.210Z,0
2016-07-22T00:25:23.049Z,0
2016-07-22T00:26:23.081Z,0
2016-07-22T00:27:23.097Z,0
2016-07-22T00:28:23.837Z,0
2016-07-22T00:29:23.882Z,0
2016-07-22T00:30:23.190Z,0
2016-07-22T00:31:23.965Z,0
2016-07-22T00:32:24.669Z,0
2016-07-22T00:33:23.282Z,0
2016-07-22T00:34:23.309Z,0
2016-07-22T00:35:23.339Z,0
2016-07-22T00:36:23.369Z,0
2016-07-22T00:37:24.106Z,0
2016-07-22T00:38:23.439Z,0
2016-07-22T00:39:23.463Z,0
2016-07-22T00:40:26.930Z,0
2016-07-22T00:41:26.116Z,0
2016-07-22T00:42:23.546Z,0
2016-07-22T00:43:23.582Z,0
2016-07-22T00:44:24.320Z,0
2016-07-22T00:45:23.640Z,0
2016-07-22T00:46:24.391Z,0
2016-07-22T00:47:24.410Z,0
2016-07-22T00:48:23.729Z,0
2016-07-22T00:49:23.775Z,0
2016-07-22T00:50:23.819Z,0
2016-07-22T00:51:23.819Z,0
2016-07-22T00:52:23.853Z,0
2016-07-22T00:53:24.602Z,0
2016-07-22T00:54:24.924Z,0
2016-07-22T00:55:23.942Z,0
2016-07-22T00:56:23.977Z,0
2016-07-22T00:57:24.006Z,0
2016-07-22T00:58:24.035Z,0
2016-07-22T00:59:24.774Z,0
2016-07-22T01:00:24.094Z,0
2016-07-22T01:01:24.838Z,0
2016-07-22T01:02:24.164Z,0
2016-07-22T01:03:25.616Z,0
2016-07-22T01:04:24.216Z,0
2016-07-22T01:05:24.304Z,0
2016-07-22T01:06:24.289Z,0
2016-07-22T01:07:24.310Z,0
2016-07-22T01:08:24.335Z,0
2016-07-22T01:09:25.073Z,0
2016-07-22T01:10:24.391Z,0
2016-07-22T01:11:24.420Z,0
2016-07-22T01:12:24.448Z,0
2016-07-22T01:13:24.490Z,0
2016-07-22T01:14:24.518Z,0
2016-07-22T01:15:24.544Z,0
2016-07-22T01:16:24.571Z,0
2016-07-22T01:17:24.598Z,0
2016-07-22T01:18:24.682Z,0
2016-07-22T01:19:24.685Z,0
2016-07-22T01:20:24.748Z,0
2016-07-22T01:21:24.724Z,0
2016-07-22T01:22:24.764Z,0
2016-07-22T01:23:24.779Z,0
2016-07-22T01:24:26.621Z,0
2016-07-22T01:25:24.860Z,0
2016-07-22T01:26:24.886Z,0
2016-07-22T01:27:24.906Z,0
2016-07-22T01:28:24.938Z,0
2016-07-22T01:29:24.961Z,0
2016-07-22T01:30:25.014Z,0
2016-07-22T01:31:25.149Z,0
2016-07-22T01:32:25.765Z,0
2016-07-22T01:33:25.082Z,0
2016-07-22T01:34:25.112Z,0
2016-07-22T01:35:25.141Z,0
2016-07-22T01:36:25.211Z,0
2016-07-22T01:37:26.735Z,0
2016-07-22T01:38:25.237Z,0
2016-07-22T01:39:25.270Z,0
2016-07-22T01:40:25.291Z,0
2016-07-22T01:41:25.315Z,0
2016-07-22T01:42:25.346Z,0
2016-07-22T01:43:25.378Z,0
2016-07-22T01:44:25.432Z,0
2016-07-22T01:45:25.438Z,0
2016-07-22T01:46:25.463Z,0
2016-07-22T01:47:25.497Z,0
2016-07-22T01:48:25.524Z,0
2016-07-22T01:49:25.555Z,0
2016-07-22T01:50:25.589Z,0
2016-07-22T01:51:25.628Z,0
2016-07-22T01:52:25.650Z,0
2016-07-22T01:53:28.740Z,0
2016-07-22T01:54:25.726Z,0
2016-07-22T01:55:26.443Z,0
2016-07-22T01:56:25.765Z,0
2016-07-22T01:57:25.804Z,0
2016-07-22T01:58:26.532Z,0
2016-07-22T01:59:26.581Z,0
2016-07-22T02:00:25.885Z,0
2016-07-22T02:01:25.931Z,0
2016-07-22T02:02:25.951Z,0
2016-07-22T02:03:25.977Z,0
2016-07-22T02:04:26.001Z,0
2016-07-22T02:05:26.460Z,0
2016-07-22T02:06:26.063Z,0
2016-07-22T02:07:27.517Z,0
2016-07-22T02:08:27.196Z,0
2016-07-22T02:09:26.155Z,0
2016-07-22T02:10:26.181Z,0
2016-07-22T02:11:26.207Z,0
2016-07-22T02:12:26.234Z,0
2016-07-22T02:13:26.989Z,0
2016-07-22T02:14:27.007Z,0
2016-07-22T02:15:26.325Z,0
2016-07-22T02:16:26.356Z,0
2016-07-22T02:17:26.394Z,0
2016-07-22T02:18:26.415Z,0
2016-07-22T02:19:26.440Z,0
2016-07-22T02:20:26.491Z,0
2016-07-22T02:21:26.503Z,0
2016-07-22T02:22:26.536Z,0
2016-07-22T02:23:26.760Z,0
2016-07-22T02:24:26.590Z,0
2016-07-22T02:25:26.618Z,0
2016-07-22T02:26:26.650Z,0
2016-07-22T02:27:27.387Z,0
2016-07-22T02:28:26.708Z,0
2016-07-22T02:29:26.738Z,0
2016-07-22T02:30:26.765Z,0
2016-07-22T02:31:26.791Z,0
2016-07-22T02:32:26.834Z,0
2016-07-22T02:33:28.281Z,0
2016-07-22T02:34:26.893Z,0
2016-07-22T02:35:26.916Z,0
2016-07-22T02:36:26.941Z,0
2016-07-22T02:37:26.972Z,0
2016-07-22T02:38:26.997Z,0
2016-07-22T02:39:27.028Z,0
2016-07-22T02:40:27.061Z,0
2016-07-22T02:41:27.095Z,0
2016-07-22T02:42:27.131Z,0
2016-07-22T02:43:27.851Z,0
2016-07-22T02:44:27.174Z,0
2016-07-22T02:45:27.211Z,0
2016-07-22T02:46:27.236Z,0
2016-07-22T02:47:27.272Z,0
2016-07-22T02:48:27.291Z,0
2016-07-22T02:49:28.037Z,0
2016-07-22T02:50:27.353Z,0
2016-07-22T02:51:27.399Z,0
2016-07-22T02:52:27.420Z,0
2016-07-22T02:53:28.150Z,0
2016-07-22T02:54:27.469Z,0
2016-07-22T02:55:28.206Z,0
2016-07-22T02:56:28.244Z,0
2016-07-22T02:57:27.556Z,0
2016-07-22T02:58:27.630Z,0
2016-07-22T02:59:27.618Z,0
2016-07-22T03:00:27.667Z,0
2016-07-22T03:01:27.686Z,0
2016-07-22T03:02:27.881Z,0
2016-07-22T03:03:27.732Z,0
2016-07-22T03:04:27.763Z,0
2016-07-22T03:05:27.814Z,0
2016-07-22T03:06:27.822Z,0
2016-07-22T03:07:28.556Z,0
2016-07-22T03:08:27.883Z,0
2016-07-22T03:09:30.037Z,0
2016-07-22T03:10:27.937Z,0
2016-07-22T03:11:27.962Z,0
2016-07-22T03:12:28.010Z,0
2016-07-22T03:13:28.047Z,0
2016-07-22T03:14:28.060Z,0
2016-07-22T03:15:28.082Z,0
2016-07-22T03:16:29.538Z,0
2016-07-22T03:17:28.165Z,0
2016-07-22T03:18:28.167Z,0
2016-07-22T03:19:28.199Z,0
2016-07-22T03:20:28.226Z,0
2016-07-22T03:21:28.258Z,0
2016-07-22T03:22:28.290Z,0
2016-07-22T03:23:29.034Z,0
2016-07-22T03:24:29.071Z,0
2016-07-22T03:25:28.383Z,0
2016-07-22T03:26:28.403Z,4
2016-07-22T03:27:28.438Z,0
2016-07-22T03:28:28.460Z,0
2016-07-22T03:29:29.210Z,0
2016-07-22T03:30:29.230Z,0
2016-07-22T03:31:28.569Z,0
2016-07-22T03:32:28.578Z,4
2016-07-22T03:33:28.616Z,0
2016-07-22T03:34:28.639Z,0
2016-07-22T03:35:28.665Z,0
2016-07-22T03:36:28.711Z,0
2016-07-22T03:37:28.722Z,4
2016-07-22T03:38:28.781Z,0
2016-07-22T03:39:28.787Z,0
2016-07-22T03:40:28.814Z,0
2016-07-22T03:41:28.850Z,4
2016-07-22T03:42:28.882Z,4
2016-07-22T03:43:28.901Z,0
2016-07-22T03:44:29.644Z,0
2016-07-22T03:45:28.960Z,4
2016-07-22T03:46:28.987Z,4
2016-07-22T03:47:29.730Z,0
2016-07-22T03:48:29.047Z,0
2016-07-22T03:49:29.094Z,4
2016-07-22T03:50:29.105Z,0
2016-07-22T03:51:29.133Z,4
2016-07-22T03:52:29.873Z,4
2016-07-22T03:53:29.914Z,0
2016-07-22T03:54:29.221Z,4
2016-07-22T03:55:29.257Z,4
2016-07-22T03:56:30.800Z,4
2016-07-22T03:57:29.316Z,4
2016-07-22T03:58:29.332Z,4
2016-07-22T03:59:29.372Z,4
2016-07-22T04:00:29.391Z,4
2016-07-22T04:01:29.424Z,0
2016-07-22T04:02:30.163Z,4
2016-07-22T04:03:29.495Z,4
2016-07-22T04:04:29.511Z,4
2016-07-22T04:05:29.542Z,4
2016-07-22T04:06:31.853Z,4
2016-07-22T04:07:29.602Z,4
2016-07-22T04:08:29.626Z,4
2016-07-22T04:09:30.367Z,4
2016-07-22T04:10:29.705Z,4
2016-07-22T04:11:29.717Z,4
2016-07-22T04:12:29.745Z,4
2016-07-22T04:13:29.778Z,4
2016-07-22T04:14:29.803Z,4
2016-07-22T04:15:29.843Z,4
2016-07-22T04:16:30.566Z,0
2016-07-22T04:17:29.893Z,4
2016-07-22T04:18:31.335Z,4
2016-07-22T04:19:29.959Z,4
2016-07-22T04:20:29.983Z,0
2016-07-22T04:21:30.005Z,4
2016-07-22T04:22:30.054Z,4
2016-07-22T04:23:30.064Z,4
2016-07-22T04:24:30.104Z,4
2016-07-22T04:25:30.130Z,4
2016-07-22T04:26:30.870Z,4
2016-07-22T04:27:30.187Z,4
2016-07-22T04:28:30.233Z,4
2016-07-22T04:29:30.351Z,4
2016-07-22T04:30:30.271Z,8
2016-07-22T04:31:30.306Z,4
2016-07-22T04:32:30.327Z,4
2016-07-22T04:33:30.359Z,8
2016-07-22T04:34:30.388Z,8
2016-07-22T04:35:31.134Z,8
2016-07-22T04:36:31.186Z,4
2016-07-22T04:37:30.487Z,8
2016-07-22T04:38:31.923Z,4
2016-07-22T04:39:30.531Z,8
2016-07-22T04:40:30.564Z,4
2016-07-22T04:41:31.300Z,8
2016-07-22T04:42:31.333Z,8
2016-07-22T04:43:30.661Z,8
2016-07-22T04:44:30.682Z,8
2016-07-22T04:45:30.714Z,8
2016-07-22T04:46:30.737Z,8
2016-07-22T04:47:30.769Z,8
2016-07-22T04:48:30.797Z,8
2016-07-22T04:49:30.823Z,8
2016-07-22T04:50:30.861Z,8
2016-07-22T04:51:30.882Z,12
2016-07-22T04:52:30.920Z,12
2016-07-22T04:53:30.964Z,8
2016-07-22T04:54:30.981Z,8
2016-07-22T04:55:31.005Z,12
2016-07-22T04:56:31.030Z,12
2016-07-22T04:57:31.775Z,8
2016-07-22T04:58:31.091Z,12
2016-07-22T04:59:31.124Z,12
2016-07-22T05:00:31.177Z,8
2016-07-22T05:01:31.890Z,12
2016-07-22T05:02:31.212Z,12
2016-07-22T05:03:31.953Z,12
2016-07-22T05:04:31.272Z,12
2016-07-22T05:05:31.298Z,12
2016-07-22T05:06:31.330Z,16
2016-07-22T05:07:31.377Z,12
2016-07-22T05:08:31.383Z,12
2016-07-22T05:09:31.415Z,16
2016-07-22T05:10:31.447Z,16
2016-07-22T05:11:31.472Z,16
2016-07-22T05:12:31.520Z,16
2016-07-22T05:13:31.543Z,16
2016-07-22T05:14:32.276Z,20
2016-07-22T05:15:31.607Z,20
2016-07-22T05:16:33.093Z,16
2016-07-22T05:17:31.662Z,16
2016-07-22T05:18:31.682Z,16
2016-07-22T05:19:32.425Z,20
2016-07-22T05:20:31.790Z,20
2016-07-22T05:21:31.775Z,16
2016-07-22T05:22:31.803Z,16
2016-07-22T05:23:31.830Z,16
2016-07-22T05:24:31.862Z,16
2016-07-22T05:25:32.601Z,12
2016-07-22T05:26:31.923Z,12
2016-07-22T05:27:31.961Z,16
2016-07-22T05:28:31.978Z,16
2016-07-22T05:29:32.010Z,16
2016-07-22T05:30:32.751Z,16
2016-07-22T05:31:32.068Z,16
2016-07-22T05:32:32.129Z,12
2016-07-22T05:33:32.130Z,12
2016-07-22T05:34:32.160Z,12
2016-07-22T05:35:32.185Z,12
2016-07-22T05:36:33.637Z,12
2016-07-22T05:37:32.246Z,12
2016-07-22T05:38:32.276Z,20
2016-07-22T05:39:32.302Z,20
2016-07-22T05:40:33.060Z,20
2016-07-22T05:41:32.360Z,20
2016-07-22T05:42:32.398Z,24
2016-07-22T05:43:32.441Z,20
2016-07-22T05:44:32.456Z,28
2016-07-22T05:45:32.812Z,24
2016-07-22T05:46:32.511Z,24
2016-07-22T05:47:33.259Z,20
2016-07-22T05:48:32.579Z,24
2016-07-22T05:49:32.626Z,20
2016-07-22T05:50:32.637Z,20
2016-07-22T05:51:33.744Z,24
2016-07-22T05:52:33.805Z,20
2016-07-22T05:53:32.756Z,20
2016-07-22T05:54:32.752Z,20
2016-07-22T05:55:32.776Z,16
2016-07-22T05:56:32.827Z,20
2016-07-22T05:57:32.843Z,20
2016-07-22T05:58:34.288Z,20
2016-07-22T05:59:35.094Z,24
2016-07-22T06:00:36.193Z,20
2016-07-22T06:01:32.960Z,20
2016-07-22T06:02:32.989Z,16
2016-07-22T06:03:33.014Z,20
2016-07-22T06:04:48.675Z,20
2016-07-22T06:05:33.084Z,24
2016-07-22T06:06:33.105Z,24
2016-07-22T06:07:33.136Z,24
2016-07-22T06:08:33.186Z,24
2016-07-22T06:09:33.197Z,24
2016-07-22T06:10:33.228Z,24
2016-07-22T06:11:33.256Z,24
2016-07-22T06:12:33.998Z,24
2016-07-22T06:13:33.313Z,24
2016-07-22T06:14:34.053Z,24
2016-07-22T06:15:33.382Z,24
2016-07-22T06:16:33.402Z,28
2016-07-22T06:17:33.439Z,28
2016-07-22T06:18:33.465Z,28
2016-07-22T06:19:34.207Z,28
2016-07-22T06:20:33.522Z,28
2016-07-22T06:21:34.260Z,28
2016-07-22T06:22:34.291Z,28
2016-07-22T06:23:33.613Z,32
2016-07-22T06:24:34.349Z,32
2016-07-22T06:25:33.670Z,36
2016-07-22T06:26:33.707Z,40
2016-07-22T06:27:33.730Z,40
2016-07-22T06:28:33.767Z,44
2016-07-22T06:29:33.796Z,40
2016-07-22T06:30:33.818Z,40
2016-07-22T06:31:33.852Z,40
2016-07-22T06:32:33.896Z,40
2016-07-22T06:33:33.912Z,44
2016-07-22T06:34:33.942Z,48
2016-07-22T06:35:33.977Z,48
2016-07-22T06:36:34.002Z,48
2016-07-22T06:37:34.030Z,40
2016-07-22T06:38:34.057Z,40
2016-07-22T06:39:34.804Z,40
2016-07-22T06:40:34.119Z,40
2016-07-22T06:41:34.150Z,36
2016-07-22T06:42:34.177Z,32
2016-07-22T06:43:34.206Z,36
2016-07-22T06:44:34.240Z,32
2016-07-22T06:45:34.291Z,36
2016-07-22T06:46:35.028Z,40
2016-07-22T06:47:34.329Z,44
2016-07-22T06:48:35.065Z,52
2016-07-22T06:49:34.389Z,56
2016-07-22T06:50:34.421Z,52
2016-07-22T06:51:34.442Z,48
2016-07-22T06:52:34.479Z,44
2016-07-22T06:53:35.227Z,40
2016-07-22T06:54:34.536Z,40
2016-07-22T06:55:34.566Z,40
2016-07-22T06:56:35.304Z,40
2016-07-22T06:57:34.641Z,40
2016-07-22T06:58:34.656Z,36
2016-07-22T06:59:34.678Z,40
2016-07-22T07:00:34.717Z,44
2016-07-22T07:01:35.454Z,48
2016-07-22T07:02:34.811Z,48
2016-07-22T07:03:34.824Z,52
2016-07-22T07:04:34.839Z,52
2016-07-22T07:05:34.861Z,60
2016-07-22T07:06:34.894Z,60
2016-07-22T07:07:34.925Z,60
2016-07-22T07:08:35.203Z,56
2016-07-22T07:09:36.409Z,56
2016-07-22T07:10:35.032Z,56
2016-07-22T07:11:35.048Z,60
2016-07-22T07:12:35.072Z,60
2016-07-22T07:13:35.103Z,48
2016-07-22T07:14:35.130Z,52
2016-07-22T07:15:35.163Z,52
2016-07-22T07:16:35.898Z,56
2016-07-22T07:17:35.218Z,60
2016-07-22T07:18:35.970Z,60
2016-07-22T07:19:35.281Z,64
2016-07-22T07:20:35.331Z,60
2016-07-22T07:21:35.354Z,64
2016-07-22T07:22:35.375Z,72
2016-07-22T07:23:35.397Z,68
2016-07-22T07:24:36.143Z,64
2016-07-22T07:25:35.469Z,64
2016-07-22T07:26:35.494Z,80
2016-07-22T07:27:35.539Z,76
2016-07-22T07:28:35.555Z,92
2016-07-22T07:29:36.295Z,132
2016-07-22T07:30:36.328Z,148
2016-07-22T07:31:35.650Z,148
2016-07-22T07:32:35.672Z,104
2016-07-22T07:33:35.727Z,96
2016-07-22T07:34:35.745Z,88
2016-07-22T07:35:35.771Z,100
2016-07-22T07:36:35.802Z,92
2016-07-22T07:37:36.538Z,116
2016-07-22T07:38:35.880Z,84
2016-07-22T07:39:35.887Z,104
2016-07-22T07:40:36.630Z,124
2016-07-22T07:41:35.945Z,168
2016-07-22T07:42:36.685Z,184
2016-07-22T07:43:36.017Z,144
2016-07-22T07:44:36.748Z,200
2016-07-22T07:45:36.779Z,200
2016-07-22T07:46:36.812Z,200
2016-07-22T07:47:36.130Z,204
2016-07-22T07:48:36.165Z,152
2016-07-22T07:49:36.188Z,220
2016-07-22T07:50:36.230Z,212
2016-07-22T07:51:36.326Z,212
2016-07-22T07:52:37.012Z,212
2016-07-22T07:53:36.329Z,204
2016-07-22T07:54:36.344Z,200
2016-07-22T07:55:36.378Z,228
2016-07-22T07:56:36.402Z,228
2016-07-22T07:57:36.445Z,236
2016-07-22T07:58:36.469Z,204
2016-07-22T07:59:36.502Z,204
2016-07-22T08:00:36.529Z,212
2016-07-22T08:01:37.274Z,236
2016-07-22T08:02:36.592Z,260
2016-07-22T08:03:36.628Z,264
2016-07-22T08:04:36.659Z,272
2016-07-22T08:05:36.683Z,276
2016-07-22T08:06:36.730Z,380
2016-07-22T08:07:36.968Z,996
2016-07-22T08:08:36.776Z,2036
2016-07-22T08:09:36.928Z,2588
2016-07-22T08:10:37.547Z,2856
2016-07-22T08:11:36.873Z,1652
2016-07-22T08:12:37.622Z,712
2016-07-22T08:13:36.938Z,408
2016-07-22T08:14:36.975Z,280
2016-07-22T08:15:37.712Z,256
2016-07-22T08:16:37.044Z,232
2016-07-22T08:17:37.088Z,216
2016-07-22T08:18:37.097Z,232
2016-07-22T08:19:37.126Z,228
2016-07-22T08:20:37.161Z,200
2016-07-22T08:21:37.187Z,228
2016-07-22T08:22:37.217Z,240
2016-07-22T08:23:37.245Z,236
2016-07-22T08:24:37.294Z,232
2016-07-22T08:25:38.034Z,244
2016-07-22T08:26:37.344Z,244
2016-07-22T08:27:37.474Z,260
2016-07-22T08:28:38.117Z,172
2016-07-22T08:29:37.441Z,164
2016-07-22T08:30:37.474Z,248
2016-07-22T08:31:38.224Z,256
2016-07-22T08:32:38.251Z,260
2016-07-22T08:33:37.583Z,256
2016-07-22T08:34:37.595Z,264
2016-07-22T08:35:37.635Z,256
2016-07-22T08:36:37.660Z,260
2016-07-22T08:37:37.690Z,260
2016-07-22T08:38:38.436Z,108
2016-07-22T08:39:37.757Z,156
2016-07-22T08:41:37.830Z,216
2016-07-22T08:42:39.271Z,228
2016-07-22T08:43:37.903Z,116
2016-07-22T08:44:38.625Z,80
2016-07-22T08:45:37.947Z,84
2016-07-22T08:46:37.980Z,268
2016-07-22T08:47:38.013Z,280
2016-07-22T08:48:38.044Z,272
2016-07-22T08:49:38.099Z,260
2016-07-22T08:50:38.109Z,248
2016-07-22T08:51:38.141Z,252
2016-07-22T08:52:38.176Z,252
2016-07-22T08:53:38.206Z,248
2016-07-22T08:54:38.947Z,256
2016-07-22T08:55:38.266Z,244
2016-07-22T08:56:38.299Z,256
2016-07-22T08:57:39.048Z,200
2016-07-22T08:58:38.383Z,232
2016-07-22T08:59:38.399Z,120
2016-07-22T09:00:39.147Z,108
2016-07-22T09:01:38.467Z,260
2016-07-22T09:02:39.222Z,264
2016-07-22T09:03:38.525Z,188
2016-07-22T09:04:39.987Z,156
2016-07-22T09:05:39.305Z,280
2016-07-22T09:06:38.627Z,160
2016-07-22T09:07:39.362Z,216
2016-07-22T09:08:38.707Z,260
2016-07-22T09:09:38.727Z,148
2016-07-22T09:10:38.753Z,84
2016-07-22T09:11:39.499Z,96
2016-07-22T09:12:38.818Z,100
2016-07-22T09:13:40.484Z,124
2016-07-22T09:14:39.619Z,252
2016-07-22T09:15:38.921Z,240
2016-07-22T09:16:40.367Z,232
2016-07-22T09:17:39.004Z,236
2016-07-22T09:18:39.770Z,240
2016-07-22T09:19:39.764Z,244
2016-07-22T09:20:39.084Z,244
2016-07-22T09:21:39.280Z,248
2016-07-22T09:22:39.153Z,276
2016-07-22T09:23:39.918Z,168
2016-07-22T09:24:39.210Z,344
2016-07-22T09:25:39.959Z,304
2016-07-22T09:26:40.816Z,260
2016-07-22T09:27:40.026Z,252
2016-07-22T09:28:40.479Z,252
2016-07-22T09:29:40.524Z,248
2016-07-22T09:30:39.408Z,248
2016-07-22T09:31:39.448Z,252
2016-07-22T09:32:39.509Z,116
2016-07-22T09:33:40.227Z,124
2016-07-22T09:34:39.546Z,264
2016-07-22T09:35:39.574Z,256
2016-07-22T09:36:40.316Z,228
2016-07-22T09:37:39.691Z,248
2016-07-22T09:38:39.838Z,248
2016-07-22T09:39:39.712Z,248
2016-07-22T09:40:39.789Z,252
2016-07-22T09:41:39.786Z,252
2016-07-22T09:42:41.528Z,252
2016-07-22T09:43:39.835Z,248
2016-07-22T09:44:39.990Z,252
2016-07-22T09:45:41.321Z,252
2016-07-22T09:46:40.644Z,260
2016-07-22T09:47:40.704Z,120
2016-07-22T09:48:41.499Z,152
2016-07-22T09:49:40.041Z,244
2016-07-22T09:50:40.824Z,240
2016-07-22T09:51:40.979Z,236
2016-07-22T09:52:40.901Z,236
2016-07-22T09:53:40.939Z,236
2016-07-22T09:54:40.909Z,240
2016-07-22T09:55:40.311Z,200
2016-07-22T09:56:40.291Z,228
2016-07-22T09:57:40.305Z,232
2016-07-22T09:58:40.342Z,236
2016-07-22T09:59:40.367Z,228
2016-07-22T10:00:40.406Z,252
2016-07-22T10:01:40.434Z,244
2016-07-22T10:02:41.178Z,248
2016-07-22T10:03:40.513Z,248
2016-07-22T10:04:41.253Z,248
2016-07-22T10:05:40.581Z,244
2016-07-22T10:06:40.604Z,268
2016-07-22T10:07:40.634Z,256
2016-07-22T10:08:41.398Z,240
2016-07-22T10:09:40.707Z,236
2016-07-22T10:10:40.740Z,232
2016-07-22T10:11:40.772Z,232
2016-07-22T10:12:40.815Z,220
2016-07-22T10:13:40.846Z,224
2016-07-22T10:14:40.888Z,220
2016-07-22T10:15:40.914Z,224
2016-07-22T10:16:41.649Z,228
2016-07-22T10:17:42.396Z,232
2016-07-22T10:18:41.025Z,132
2016-07-22T10:19:41.042Z,100
2016-07-22T10:20:41.076Z,104
2016-07-22T10:21:41.139Z,88
2016-07-22T10:22:42.896Z,236
2016-07-22T10:23:42.931Z,232
2016-07-22T10:24:41.218Z,224
2016-07-22T10:25:41.954Z,220
2016-07-22T10:26:41.282Z,224
2016-07-22T10:27:42.024Z,216
2016-07-22T10:28:41.349Z,220
2016-07-22T10:29:41.384Z,216
2016-07-22T10:30:41.413Z,216
2016-07-22T10:31:41.470Z,212
2016-07-22T10:32:45.052Z,216
2016-07-22T10:33:41.521Z,212
2016-07-22T10:34:41.548Z,212
2016-07-22T10:35:41.591Z,216
2016-07-22T10:36:41.616Z,212
2016-07-22T10:37:42.361Z,212
2016-07-22T10:38:41.687Z,212
2016-07-22T10:39:41.719Z,216
2016-07-22T10:40:41.766Z,212
2016-07-22T10:41:42.497Z,212
2016-07-22T10:42:41.820Z,208
2016-07-22T10:43:42.571Z,204
2016-07-22T10:44:43.309Z,204
2016-07-22T10:45:41.919Z,204
2016-07-22T10:46:42.679Z,204
2016-07-22T10:47:42.010Z,200
2016-07-22T10:48:42.735Z,200
2016-07-22T10:49:42.782Z,204
2016-07-22T10:50:42.097Z,204
2016-07-22T10:51:43.546Z,200
2016-07-22T10:52:42.163Z,204
2016-07-22T10:53:42.196Z,200
2016-07-22T10:54:42.229Z,200
2016-07-22T10:55:42.990Z,204
2016-07-22T10:56:43.011Z,204
2016-07-22T10:57:42.352Z,204
2016-07-22T10:58:42.373Z,196
2016-07-22T10:59:42.401Z,200
2016-07-22T11:00:42.437Z,200
2016-07-22T11:01:42.476Z,200
2016-07-22T11:02:42.502Z,200
2016-07-22T11:03:42.550Z,200
2016-07-22T11:04:43.304Z,200
2016-07-22T11:05:44.030Z,196
2016-07-22T11:06:42.661Z,192
2016-07-22T11:07:42.683Z,192
2016-07-22T11:08:42.714Z,192
2016-07-22T11:09:42.742Z,192
2016-07-22T11:10:42.786Z,196
2016-07-22T11:11:42.814Z,196
2016-07-22T11:12:42.860Z,196
2016-07-22T11:13:42.891Z,196
2016-07-22T11:14:42.940Z,192
2016-07-22T11:15:43.050Z,196
2016-07-22T11:16:42.987Z,188
2016-07-22T11:17:43.021Z,192
2016-07-22T11:18:43.060Z,188
2016-07-22T11:19:43.090Z,184
2016-07-22T11:20:43.155Z,184
2016-07-22T11:21:43.162Z,188
2016-07-22T11:22:43.191Z,192
2016-07-22T11:23:43.248Z,192
2016-07-22T11:24:43.271Z,196
2016-07-22T11:25:43.296Z,196
2016-07-22T11:26:43.333Z,136
2016-07-22T11:27:43.371Z,176
2016-07-22T11:28:43.401Z,184
2016-07-22T11:29:43.446Z,184
2016-07-22T11:30:43.470Z,184
2016-07-22T11:31:43.525Z,176
2016-07-22T11:32:43.545Z,164
2016-07-22T11:33:43.574Z,172
2016-07-22T11:34:44.319Z,176
2016-07-22T11:35:43.637Z,176
2016-07-22T11:36:43.676Z,188
2016-07-22T11:37:43.719Z,180
2016-07-22T11:38:43.747Z,188
2016-07-22T11:39:43.781Z,180
2016-07-22T11:40:43.837Z,180
2016-07-22T11:41:43.858Z,148
2016-07-22T11:42:43.882Z,116
2016-07-22T11:43:43.922Z,76
2016-07-22T11:44:43.960Z,176
2016-07-22T11:45:43.989Z,180
2016-07-22T11:46:44.033Z,180
2016-07-22T11:47:44.061Z,184
2016-07-22T11:48:45.585Z,184
2016-07-22T11:49:44.135Z,184
2016-07-22T11:50:44.166Z,184
2016-07-22T11:51:44.203Z,144
2016-07-22T11:52:44.234Z,180
2016-07-22T11:53:48.235Z,180
2016-07-22T11:54:45.018Z,176
2016-07-22T11:55:44.333Z,180
2016-07-22T11:56:45.084Z,72
2016-07-22T11:57:45.116Z,184
2016-07-22T11:58:44.443Z,176
2016-07-22T11:59:46.607Z,180
2016-07-22T12:00:44.507Z,184
2016-07-22T12:01:44.547Z,184
2016-07-22T12:02:44.592Z,176
2016-07-22T12:03:44.616Z,180
2016-07-22T12:04:44.650Z,180
2016-07-22T12:05:45.398Z,180
2016-07-22T12:06:44.725Z,184
2016-07-22T12:07:45.466Z,180
2016-07-22T12:08:45.494Z,180
2016-07-22T12:09:45.532Z,180
2016-07-22T12:10:45.566Z,180
2016-07-22T12:11:44.897Z,180
2016-07-22T12:12:44.930Z,176
2016-07-22T12:13:45.673Z,180
2016-07-22T12:14:45.722Z,192
2016-07-22T12:15:45.031Z,192
2016-07-22T12:16:45.070Z,188
2016-07-22T12:17:46.531Z,188
2016-07-22T12:18:45.134Z,188
2016-07-22T12:19:45.176Z,184
2016-07-22T12:20:45.203Z,176
2016-07-22T12:21:45.238Z,176
2016-07-22T12:22:45.987Z,176
2016-07-22T12:23:45.308Z,172
2016-07-22T12:24:46.057Z,180
2016-07-22T12:25:45.380Z,172
2016-07-22T12:26:45.417Z,172
2016-07-22T12:27:45.450Z,168
2016-07-22T12:28:46.201Z,172
2016-07-22T12:29:45.521Z,176
2016-07-22T12:30:46.317Z,176
2016-07-22T12:31:45.598Z,172
2016-07-22T12:32:45.630Z,136
2016-07-22T12:33:45.661Z,128
2016-07-22T12:34:46.400Z,168
2016-07-22T12:35:45.724Z,176
2016-07-22T12:36:45.763Z,172
2016-07-22T12:37:45.795Z,176
2016-07-22T12:38:45.834Z,172
2016-07-22T12:39:45.875Z,156
2016-07-22T12:40:45.898Z,172
2016-07-22T12:41:45.937Z,172
2016-07-22T12:42:45.975Z,168
2016-07-22T12:43:46.006Z,168
2016-07-22T12:44:46.765Z,176
2016-07-22T12:45:47.009Z,168
2016-07-22T12:46:46.112Z,172
2016-07-22T12:47:46.152Z,164
2016-07-22T12:48:46.892Z,160
2016-07-22T12:49:46.218Z,76
2016-07-22T12:50:46.248Z,72
2016-07-22T12:51:46.287Z,76
2016-07-22T12:52:47.033Z,108
2016-07-22T12:53:46.363Z,116
2016-07-22T12:54:46.396Z,152
2016-07-22T12:55:47.135Z,156
2016-07-22T12:56:47.172Z,160
2016-07-22T12:57:46.498Z,160
2016-07-22T12:58:47.281Z,168
2016-07-22T12:59:46.560Z,164
2016-07-22T13:00:46.595Z,164
2016-07-22T13:01:46.633Z,152
2016-07-22T13:02:46.667Z,144
2016-07-22T13:03:46.698Z,148
2016-07-22T13:04:47.449Z,160
2016-07-22T13:05:48.193Z,156
2016-07-22T13:06:46.804Z,160
2016-07-22T13:07:46.842Z,164
2016-07-22T13:08:46.882Z,164
2016-07-22T13:09:46.913Z,160
2016-07-22T13:10:47.662Z,160
2016-07-22T13:11:46.984Z,156
2016-07-22T13:12:47.039Z,156
2016-07-22T13:13:47.068Z,136
2016-07-22T13:14:47.091Z,140
2016-07-22T13:15:47.119Z,144
2016-07-22T13:16:47.157Z,152
2016-07-22T13:17:47.899Z,152
2016-07-22T13:18:47.936Z,136
2016-07-22T13:19:47.260Z,148
2016-07-22T13:20:48.716Z,148
2016-07-22T13:21:47.354Z,140
2016-07-22T13:22:47.361Z,140
2016-07-22T13:23:48.249Z,140
2016-07-22T13:24:47.432Z,140
2016-07-22T13:25:47.464Z,140
2016-07-22T13:26:47.503Z,136
2016-07-22T13:27:47.536Z,132
2016-07-22T13:28:47.567Z,132
2016-07-22T13:29:47.624Z,136
2016-07-22T13:30:47.656Z,140
2016-07-22T13:31:48.387Z,136
2016-07-22T13:32:47.713Z,136
2016-07-22T13:33:47.742Z,132
2016-07-22T13:34:47.784Z,132
2016-07-22T13:35:47.815Z,132
2016-07-22T13:36:47.849Z,124
2016-07-22T13:37:48.599Z,124
2016-07-22T13:38:47.933Z,128
2016-07-22T13:39:47.970Z,124
2016-07-22T13:40:48.064Z,120
2016-07-22T13:41:48.031Z,124
2016-07-22T13:42:48.062Z,128
2016-07-22T13:43:48.091Z,128
2016-07-22T13:44:48.132Z,128
2016-07-22T13:45:48.170Z,124
2016-07-22T13:46:48.216Z,128
2016-07-22T13:47:48.238Z,124
2016-07-22T13:48:49.004Z,128
2016-07-22T13:49:48.306Z,120
2016-07-22T13:50:49.111Z,116
2016-07-22T13:51:49.102Z,120
2016-07-22T13:52:48.415Z,112
2016-07-22T13:53:49.895Z,112
2016-07-22T13:54:49.196Z,112
2016-07-22T13:55:48.520Z,108
2016-07-22T13:56:49.266Z,100
2016-07-22T13:57:49.304Z,104
2016-07-22T13:58:48.617Z,100
2016-07-22T13:59:49.590Z,100
2016-07-22T14:00:49.594Z,104
2016-07-22T14:01:48.723Z,104
2016-07-22T14:02:48.764Z,108
2016-07-22T14:03:48.800Z,104
2016-07-22T14:04:48.833Z,96
2016-07-22T14:05:48.872Z,96
2016-07-22T14:06:48.922Z,88
2016-07-22T14:07:49.652Z,88
2016-07-22T14:08:48.967Z,88
2016-07-22T14:09:49.008Z,84
2016-07-22T14:10:49.082Z,84
2016-07-22T14:11:50.497Z,80
2016-07-22T14:12:50.612Z,76
2016-07-22T14:13:49.270Z,72